createdAt,value
2022-12-23T00:01:23.113Z,8.79
2022-12-23T00:06:25.195Z,8.75
2022-12-23T00:11:27.708Z,8.76
2022-12-23T00:16:29.526Z,8.74
2022-12-23T00:21:31.035Z,8.77
2022-12-23T00:26:32.431Z,8.74
2022-12-23T00:31:33.850Z,8.74
2022-12-23T00:36:37.500Z,8.75
2022-12-23T00:41:57.749Z,8.74
2022-12-23T00:46:59.183Z,8.71
2022-12-23T00:52:01.263Z,8.71
2022-12-23T00:57:03.660Z,8.71
2022-12-23T01:02:23.587Z,8.71
2022-12-23T01:07:25.484Z,8.70
2022-12-23T01:12:27.332Z,8.69
2022-12-23T01:17:28.833Z,8.68
2022-12-23T01:22:30.272Z,8.68
2022-12-23T01:27:31.761Z,8.67
2022-12-23T01:32:33.350Z,8.64
2022-12-23T01:37:34.873Z,8.62
2022-12-23T01:42:45.452Z,8.62
2022-12-23T01:48:05.429Z,8.63
2022-12-23T01:53:15.210Z,8.59
2022-12-23T01:58:27.743Z,8.59
2022-12-23T02:03:44.614Z,8.57
2022-12-23T02:09:04.866Z,8.58
2022-12-23T02:14:59.903Z,8.59
2022-12-23T02:20:38.825Z,8.56
2022-12-23T02:26:02.116Z,8.56
2022-12-23T02:31:13.681Z,8.51
2022-12-23T02:36:44.380Z,8.52
2022-12-23T02:41:57.536Z,8.52
2022-12-23T02:47:09.906Z,8.49
2022-12-23T02:52:17.208Z,8.50
2022-12-23T02:57:26.258Z,8.51
2022-12-23T03:02:27.836Z,8.48
2022-12-23T03:07:39.062Z,8.47
2022-12-23T03:13:07.289Z,8.43
2022-12-23T03:18:23.442Z,8.37
2022-12-23T03:23:38.992Z,8.34
2022-12-23T03:28:53.155Z,8.32
2022-12-23T03:34:04.082Z,8.27
2022-12-23T03:39:10.592Z,8.23
2022-12-23T03:44:27.256Z,8.16
2022-12-23T03:49:37.986Z,8.14
2022-12-23T03:54:53.702Z,8.10
2022-12-23T03:59:55.621Z,8.07
2022-12-23T04:05:13.903Z,8.06
2022-12-23T04:10:16.034Z,8.04
2022-12-23T04:15:26.076Z,8.04
2022-12-23T04:20:27.483Z,8.01
2022-12-23T04:25:28.915Z,8.02
2022-12-23T04:30:34.432Z,8.02
2022-12-23T04:35:36.362Z,7.98
2022-12-23T04:40:37.780Z,8.00
2022-12-23T04:45:39.205Z,8.01
2022-12-23T04:50:40.722Z,7.99
2022-12-23T04:55:42.225Z,7.96
2022-12-23T05:00:43.903Z,7.99
2022-12-23T05:05:45.799Z,7.97
2022-12-23T05:10:47.261Z,8.00
2022-12-23T05:15:53.671Z,7.95
2022-12-23T05:20:55.109Z,7.94
2022-12-23T05:25:56.541Z,7.90
2022-12-23T05:31:06.596Z,7.87
2022-12-23T05:36:09.078Z,7.86
2022-12-23T05:41:10.508Z,7.82
2022-12-23T05:46:12.140Z,7.78
2022-12-23T05:51:13.709Z,7.77
2022-12-23T05:56:16.632Z,7.74
2022-12-23T06:01:18.074Z,7.72
2022-12-23T06:06:19.516Z,7.70
2022-12-23T06:11:20.966Z,7.69
2022-12-23T06:16:22.471Z,7.66
2022-12-23T06:21:25.556Z,7.64
2022-12-23T06:26:27.156Z,7.63
2022-12-23T06:31:28.635Z,7.58
2022-12-23T06:36:30.022Z,7.53
2022-12-23T06:41:31.455Z,7.49
2022-12-23T06:46:32.947Z,7.46
2022-12-23T06:51:34.553Z,7.42
2022-12-23T06:56:36.027Z,7.44
2022-12-23T07:01:37.595Z,7.47
2022-12-23T07:06:39.790Z,7.44
2022-12-23T07:11:47.169Z,7.44
2022-12-23T07:16:48.739Z,7.45
2022-12-23T07:21:50.367Z,7.48
2022-12-23T07:26:51.987Z,7.45
2022-12-23T07:31:53.618Z,7.45
2022-12-23T07:36:55.716Z,7.47
2022-12-23T07:42:25.045Z,7.47
2022-12-23T07:47:18.593Z,7.51
2022-12-23T07:52:20.004Z,7.49
2022-12-23T07:57:21.436Z,7.49
2022-12-23T08:02:25.279Z,7.48
2022-12-23T08:07:28.371Z,7.49
2022-12-23T08:12:30.059Z,7.53
2022-12-23T08:17:31.551Z,7.54
2022-12-23T08:22:33.197Z,7.55
2022-12-23T08:27:35.784Z,7.56
2022-12-23T08:32:37.191Z,7.56
2022-12-23T08:37:45.411Z,7.57
2022-12-23T08:42:46.969Z,7.57
2022-12-23T08:47:48.361Z,7.55
2022-12-23T08:52:49.824Z,7.59
2022-12-23T08:57:51.275Z,7.61
2022-12-23T09:02:52.788Z,7.63
2022-12-23T09:07:54.674Z,7.64
2022-12-23T09:12:58.264Z,7.64
2022-12-23T09:17:59.750Z,7.67
2022-12-23T09:23:02.286Z,7.65
2022-12-23T09:28:05.200Z,7.67
2022-12-23T09:33:06.747Z,7.68
2022-12-23T09:38:08.637Z,7.70
2022-12-23T09:43:20.645Z,7.71
2022-12-23T09:48:26.978Z,7.73
2022-12-23T09:54:03.200Z,7.74
2022-12-23T09:59:23.015Z,7.77
2022-12-23T10:04:42.854Z,7.83
2022-12-23T10:09:47.159Z,7.83
2022-12-23T10:14:52.582Z,7.88
2022-12-23T10:20:00.138Z,7.88
2022-12-23T10:25:05.508Z,7.90
2022-12-23T10:30:42.014Z,8.02
2022-12-23T10:35:50.402Z,8.06
2022-12-23T10:41:11.872Z,8.09
2022-12-23T10:46:27.223Z,8.20
2022-12-23T10:51:32.170Z,8.24
2022-12-23T10:56:33.700Z,8.23
2022-12-23T11:01:35.438Z,8.25
2022-12-23T11:06:42.768Z,8.30
2022-12-23T11:12:06.371Z,8.30
2022-12-23T11:17:24.149Z,8.30
2022-12-23T11:22:25.697Z,8.29
2022-12-23T11:27:27.208Z,8.34
2022-12-23T11:32:29.356Z,8.34
2022-12-23T11:37:43.536Z,8.37
2022-12-23T11:42:47.948Z,8.38
2022-12-23T11:47:53.379Z,8.34
2022-12-23T11:53:14.847Z,8.32
2022-12-23T11:58:21.372Z,8.31
2022-12-23T12:03:27.699Z,8.29
2022-12-23T12:08:39.643Z,8.28
2022-12-23T12:13:44.085Z,8.28
2022-12-23T12:18:52.099Z,8.25
2022-12-23T12:24:19.816Z,8.25
2022-12-23T12:29:39.695Z,8.25
2022-12-23T12:34:50.578Z,8.21
2022-12-23T12:39:57.498Z,8.21
2022-12-23T12:45:20.816Z,8.18
2022-12-23T12:50:27.925Z,8.17
2022-12-23T12:55:43.388Z,8.16
2022-12-23T13:01:08.376Z,8.14
2022-12-23T13:06:26.929Z,8.14
2022-12-23T13:11:35.947Z,8.12
2022-12-23T13:16:53.178Z,8.11
2022-12-23T13:22:08.095Z,8.09
2022-12-23T13:27:35.643Z,8.14
2022-12-23T13:32:51.243Z,8.13
2022-12-23T13:38:23.142Z,8.10
2022-12-23T13:43:29.815Z,8.12
2022-12-23T13:48:38.822Z,8.15
2022-12-23T13:54:05.364Z,8.17
2022-12-23T13:59:11.283Z,8.17
2022-12-23T14:04:29.808Z,8.22
2022-12-23T14:09:38.489Z,8.23
2022-12-23T14:14:48.913Z,8.26
2022-12-23T14:20:29.100Z,8.27
2022-12-23T14:25:43.845Z,8.22
2022-12-23T14:30:46.106Z,8.20
2022-12-23T14:35:47.614Z,8.18
2022-12-23T14:40:57.794Z,8.18
2022-12-23T14:46:08.306Z,8.13
2022-12-23T14:51:25.279Z,8.15
2022-12-23T14:56:39.037Z,8.15
2022-12-23T15:01:44.796Z,8.12
2022-12-23T15:06:51.937Z,8.13
2022-12-23T15:11:57.440Z,8.12
2022-12-23T15:16:58.989Z,8.14
2022-12-23T15:22:20.696Z,8.11
2022-12-23T15:27:28.448Z,8.10
2022-12-23T15:32:31.134Z,8.10
2022-12-23T15:37:33.819Z,8.09
2022-12-23T15:42:37.001Z,8.06
2022-12-23T15:47:39.470Z,8.05
2022-12-23T15:52:44.217Z,8.05
2022-12-23T15:57:50.544Z,8.03
2022-12-23T16:03:02.398Z,8.01
2022-12-23T16:08:28.543Z,8.01
2022-12-23T16:13:33.182Z,8.02
2022-12-23T16:18:47.209Z,8.03
2022-12-23T16:23:57.738Z,8.01
2022-12-23T16:29:03.208Z,8.01
2022-12-23T16:34:08.849Z,8.00
2022-12-23T16:39:21.772Z,7.99
2022-12-23T16:44:46.653Z,7.97
2022-12-23T16:49:53.928Z,7.92
2022-12-23T16:55:02.767Z,7.91
2022-12-23T17:00:04.668Z,7.95
2022-12-23T17:05:14.537Z,7.96
2022-12-23T17:10:18.749Z,7.99
2022-12-23T17:15:25.145Z,8.13
2022-12-23T17:20:26.781Z,8.18
2022-12-23T17:25:29.851Z,8.23
2022-12-23T17:30:32.968Z,8.29
2022-12-23T17:35:53.547Z,8.38
2022-12-23T17:40:56.327Z,8.49
2022-12-23T17:46:03.016Z,8.67
2022-12-23T17:51:04.691Z,8.69
2022-12-23T17:56:21.156Z,8.88
2022-12-23T18:01:28.947Z,9.01
2022-12-23T18:06:30.411Z,9.07
2022-12-23T18:11:43.916Z,9.10
2022-12-23T18:16:51.377Z,9.21
2022-12-23T18:21:57.665Z,9.18
2022-12-23T18:26:59.165Z,9.15
2022-12-23T18:32:07.155Z,9.15
2022-12-23T18:37:11.703Z,9.16
2022-12-23T18:42:21.509Z,9.15
2022-12-23T18:47:24.788Z,9.14
2022-12-23T18:52:27.743Z,9.17
2022-12-23T18:57:31.555Z,9.11
2022-12-23T19:02:42.949Z,9.17
2022-12-23T19:07:51.781Z,9.17
2022-12-23T19:12:54.483Z,9.26
2022-12-23T19:18:07.409Z,9.26
2022-12-23T19:23:09.798Z,9.27
2022-12-23T19:28:11.779Z,9.24
2022-12-23T19:33:15.722Z,9.29
2022-12-23T19:38:19.830Z,9.30
2022-12-23T19:43:22.672Z,9.25
2022-12-23T19:48:28.242Z,9.32
2022-12-23T19:53:30.464Z,9.40
2022-12-23T19:58:37.402Z,9.37
2022-12-23T20:03:42.811Z,9.32
2022-12-23T20:08:47.785Z,9.28
2022-12-23T20:13:54.152Z,9.29
2022-12-23T20:18:56.524Z,9.33
2022-12-23T20:23:58.097Z,9.35
2022-12-23T20:28:59.678Z,9.33
2022-12-23T20:34:05.871Z,9.33
2022-12-23T20:39:10.346Z,9.28
2022-12-23T20:49:36.304Z,9.19
2022-12-23T20:54:37.885Z,9.13
2022-12-23T20:59:39.340Z,9.12
2022-12-23T21:04:43.230Z,9.13
2022-12-23T21:09:44.648Z,9.13
2022-12-23T21:14:46.053Z,9.13
2022-12-23T21:19:51.062Z,9.15
2022-12-23T21:24:53.769Z,9.20
2022-12-23T21:29:55.318Z,9.18
2022-12-23T21:34:58.040Z,9.10
2022-12-23T21:40:01.746Z,9.04
2022-12-23T21:45:06.053Z,8.98
2022-12-23T21:50:08.565Z,8.95
2022-12-23T21:55:15.623Z,8.93
2022-12-23T22:00:17.404Z,8.84
2022-12-23T22:05:23.200Z,8.80
2022-12-23T22:10:24.685Z,8.75
2022-12-23T22:15:26.161Z,8.78
2022-12-23T22:20:30.212Z,8.83
2022-12-23T22:25:31.757Z,8.86
2022-12-23T22:30:34.600Z,8.84
2022-12-23T22:35:39.654Z,8.84
2022-12-23T22:40:41.375Z,8.85
2022-12-23T22:45:43.174Z,8.86
2022-12-23T22:50:48.557Z,8.86
2022-12-23T22:55:56.943Z,8.85
2022-12-23T23:00:59.297Z,8.81
2022-12-23T23:06:09.428Z,8.78
2022-12-23T23:11:11.055Z,8.73
2022-12-23T23:16:13.009Z,8.67
2022-12-23T23:21:17.695Z,8.72
2022-12-23T23:26:21.214Z,8.63
2022-12-23T23:31:41.735Z,8.74
2022-12-23T23:36:47.763Z,8.80
2022-12-23T23:41:51.079Z,8.70
2022-12-23T23:46:52.794Z,8.73
2022-12-23T23:51:55.677Z,8.68
2022-12-23T23:56:57.193Z,8.71
